KLUK/LUK METAR and TAF weather

Enter ICAO airport designator
Station Type Date Time Source
KLUK METAR 2022/12/04 05:53 UTC NOAA

KLUK 040553Z AUTO 36004KT 10SM CLR M02/M08 A3046 RMK AO2 SLP317 T10171078 10033 21033 58000


Station Type Date Time Source
KLUK Decoded METAR 2022/12/04 05:53 UTC NOAA

CINCINNATI MUN LUNKEN FLD, OH, United States (KLUK) 39-06N 84-25W 155M
Dec 04, 2022 - 12:53 AM EST / 2022.12.04 0553 UTC
Wind: from the N (360 degrees) at 5 MPH (4 KT):0
Visibility: 10 mile(s):0
Sky conditions: clear
Temperature: 28.9 F (-1.7 C)
Windchill: 23 F (-5 C):1
Dew Point: 18.0 F (-7.8 C)
Relative Humidity: 63%
Pressure (altimeter): 30.46 in. Hg (1031 hPa)
Pressure tendency: 0.00 inches (0.0 hPa) lower than three hours ago
ob: KLUK 040553Z AUTO 36004KT 10SM CLR M02/M08 A3046 RMK AO2 SLP317 T10171078 10033 21033 58000
cycle: 6

Station Type Date Time Source
KLUK TAF 2022/12/04 06:39 UTC NOAA

TAF KLUK 040537Z 0406/0506 34003KT P6SM BKN200
FM041500 23006KT P6SM SKC
FM050000 00000KT P6SM SKC

Example: see airport list